createdAt,value
2023-12-02T00:02:08.877Z,5.95
2023-12-02T00:04:35.493Z,7.22
2023-12-02T00:07:02.064Z,6.45
2023-12-02T00:09:28.701Z,6.00
2023-12-02T00:11:55.394Z,7.07
2023-12-02T00:14:22.049Z,5.78
2023-12-02T00:16:48.623Z,5.85
2023-12-02T00:19:15.270Z,6.13
2023-12-02T00:21:41.912Z,6.38
2023-12-02T00:24:08.536Z,5.93
2023-12-02T00:26:35.577Z,6.10
2023-12-02T00:29:02.151Z,5.90
2023-12-02T00:31:28.702Z,5.97
2023-12-02T00:33:55.353Z,6.40
2023-12-02T00:36:22.042Z,6.00
2023-12-02T00:38:48.643Z,6.40
2023-12-02T00:41:15.182Z,5.63
2023-12-02T00:43:41.780Z,6.50
2023-12-02T00:46:08.603Z,5.88
2023-12-02T00:48:35.429Z,5.68
2023-12-02T00:51:02.114Z,6.47
2023-12-02T00:53:28.684Z,5.75
2023-12-02T00:55:55.233Z,6.53
2023-12-02T00:58:27.744Z,5.82
2023-12-02T01:00:58.487Z,5.60
2023-12-02T01:03:25.061Z,6.15
2023-12-02T01:05:51.727Z,6.07
2023-12-02T01:08:18.301Z,6.32
2023-12-02T01:10:44.867Z,5.25
2023-12-02T01:13:11.434Z,4.82
2023-12-02T01:15:38.066Z,5.60
2023-12-02T01:18:04.763Z,6.78
2023-12-02T01:20:31.339Z,6.18
2023-12-02T01:22:57.955Z,6.28
2023-12-02T01:25:24.698Z,6.05
2023-12-02T01:27:51.272Z,6.00
2023-12-02T01:30:17.942Z,6.28
2023-12-02T01:32:44.548Z,6.05
2023-12-02T01:35:11.103Z,6.00
2023-12-02T01:37:38.096Z,5.38
2023-12-02T01:40:05.066Z,5.72
2023-12-02T01:42:31.663Z,5.05
2023-12-02T01:44:58.270Z,5.22
2023-12-02T01:47:24.843Z,6.07
2023-12-02T01:49:51.624Z,5.63
2023-12-02T01:52:18.250Z,5.05
2023-12-02T01:54:44.798Z,5.72
2023-12-02T01:57:11.434Z,5.57
2023-12-02T01:59:40.485Z,5.03
2023-12-02T02:02:07.358Z,6.10
2023-12-02T02:04:34.008Z,5.30
2023-12-02T02:07:00.608Z,4.65
2023-12-02T02:09:27.229Z,5.65
2023-12-02T02:11:53.899Z,5.20
2023-12-02T02:14:20.455Z,5.82
2023-12-02T02:16:47.017Z,5.15
2023-12-02T02:19:13.749Z,6.15
2023-12-02T02:21:40.435Z,5.50
2023-12-02T02:24:07.067Z,5.47
2023-12-02T02:26:33.660Z,5.90
2023-12-02T02:29:00.204Z,5.68
2023-12-02T02:31:26.763Z,4.57
2023-12-02T02:33:53.321Z,5.43
2023-12-02T02:36:19.920Z,5.18
2023-12-02T02:38:46.442Z,5.30
2023-12-02T02:41:13.047Z,5.45
2023-12-02T02:43:39.624Z,5.03
2023-12-02T02:46:06.863Z,4.45
2023-12-02T02:48:33.517Z,5.22
2023-12-02T02:51:00.232Z,5.93
2023-12-02T02:53:26.841Z,4.93
2023-12-02T02:55:53.401Z,5.25
2023-12-02T02:58:20.220Z,5.20
2023-12-02T03:00:47.202Z,4.57
2023-12-02T03:03:14.022Z,4.97
2023-12-02T03:05:40.909Z,5.43
2023-12-02T03:08:07.696Z,5.50
2023-12-02T03:10:35.242Z,5.38
2023-12-02T03:13:02.228Z,5.47
2023-12-02T03:15:29.156Z,5.63
2023-12-02T03:17:55.899Z,4.95
2023-12-02T03:20:22.524Z,5.10
2023-12-02T03:22:49.087Z,4.45
2023-12-02T03:25:15.710Z,5.10
2023-12-02T03:27:42.273Z,5.88
2023-12-02T03:30:09.330Z,4.57
2023-12-02T03:32:38.192Z,4.55
2023-12-02T03:35:05.727Z,4.93
2023-12-02T03:37:32.268Z,4.40
2023-12-02T03:39:58.807Z,5.53
2023-12-02T03:42:25.361Z,5.13
2023-12-02T03:44:51.971Z,4.82
2023-12-02T03:47:18.525Z,5.40
2023-12-02T03:49:45.092Z,4.57
2023-12-02T03:52:11.658Z,5.03
2023-12-02T03:54:38.276Z,4.65
2023-12-02T03:57:05.079Z,5.03
2023-12-02T03:59:31.636Z,4.35
2023-12-02T04:01:58.649Z,5.10
2023-12-02T04:04:25.424Z,4.35
2023-12-02T04:06:52.052Z,4.80
2023-12-02T04:09:18.684Z,4.65
2023-12-02T04:11:48.477Z,4.78
2023-12-02T04:14:15.085Z,4.55
2023-12-02T04:16:42.018Z,5.13
2023-12-02T04:19:11.705Z,5.13
2023-12-02T04:21:42.459Z,5.10
2023-12-02T04:24:09.112Z,5.43
2023-12-02T04:26:36.561Z,4.85
2023-12-02T04:29:03.158Z,4.90
2023-12-02T04:31:31.065Z,4.93
2023-12-02T04:33:57.780Z,4.68
2023-12-02T04:36:24.466Z,4.28
2023-12-02T04:38:51.099Z,5.45
2023-12-02T04:41:17.675Z,5.00
2023-12-02T04:43:44.590Z,4.80
2023-12-02T04:46:11.194Z,5.72
2023-12-02T04:48:37.787Z,6.03
2023-12-02T04:51:04.662Z,4.90
2023-12-02T04:53:31.241Z,4.90
2023-12-02T04:55:57.804Z,5.43
2023-12-02T04:58:24.361Z,4.20
2023-12-02T05:00:50.968Z,5.65
2023-12-02T05:03:17.669Z,5.78
2023-12-02T05:05:44.934Z,5.22
2023-12-02T05:08:11.530Z,4.97
2023-12-02T05:10:38.095Z,5.00
2023-12-02T05:13:04.669Z,5.40
2023-12-02T05:15:31.307Z,6.10
2023-12-02T05:17:57.969Z,5.85
2023-12-02T05:20:24.559Z,5.78
2023-12-02T05:22:51.355Z,5.13
2023-12-02T05:25:17.985Z,5.05
2023-12-02T05:27:44.585Z,6.10
2023-12-02T05:30:11.808Z,4.82
2023-12-02T05:32:38.446Z,4.68
2023-12-02T05:35:05.531Z,6.80
2023-12-02T05:37:32.217Z,5.10
2023-12-02T05:39:58.719Z,5.45
2023-12-02T05:42:25.385Z,5.03
2023-12-02T05:44:52.000Z,5.93
2023-12-02T05:47:18.550Z,5.25
2023-12-02T05:49:45.077Z,5.68
2023-12-02T05:52:11.815Z,4.53
2023-12-02T05:54:38.542Z,6.07
2023-12-02T05:57:05.414Z,5.82
2023-12-02T05:59:31.989Z,5.65
2023-12-02T06:01:58.561Z,5.05
2023-12-02T06:04:25.154Z,6.03
2023-12-02T06:06:51.758Z,5.03
2023-12-02T06:09:18.337Z,4.93
2023-12-02T06:11:44.949Z,6.72
2023-12-02T06:14:11.532Z,6.25
2023-12-02T06:16:38.075Z,6.13
2023-12-02T06:19:04.826Z,6.07
2023-12-02T06:21:31.508Z,5.90
2023-12-02T06:23:58.164Z,6.18
2023-12-02T06:26:24.741Z,6.63
2023-12-02T06:28:51.346Z,6.53
2023-12-02T06:31:17.892Z,6.05
2023-12-02T06:33:44.585Z,6.32
2023-12-02T06:36:11.728Z,6.22
2023-12-02T06:38:38.311Z,5.57
2023-12-02T06:41:05.049Z,5.95
2023-12-02T06:43:31.618Z,6.07
2023-12-02T06:45:58.153Z,6.50
2023-12-02T06:48:24.793Z,6.65
2023-12-02T06:50:51.363Z,6.35
2023-12-02T06:53:17.953Z,5.85
2023-12-02T06:55:44.498Z,5.75
2023-12-02T06:58:11.093Z,6.53
2023-12-02T07:00:37.755Z,6.15
2023-12-02T07:03:04.390Z,6.25
2023-12-02T07:05:31.018Z,6.68
2023-12-02T07:07:57.600Z,6.78
2023-12-02T07:10:24.186Z,6.38
2023-12-02T07:12:50.751Z,6.10
2023-12-02T07:15:17.485Z,6.90
2023-12-02T07:17:44.129Z,7.13
2023-12-02T07:20:11.245Z,7.28
2023-12-02T07:22:37.784Z,6.80
2023-12-02T07:25:04.844Z,6.80
2023-12-02T07:27:31.477Z,6.72
2023-12-02T07:32:27.579Z,6.40
2023-12-02T07:34:54.282Z,7.25
2023-12-02T07:37:20.823Z,6.13
2023-12-02T07:39:47.361Z,6.97
2023-12-02T07:42:14.115Z,5.85
2023-12-02T07:44:40.601Z,6.85
2023-12-02T07:47:07.199Z,6.10
2023-12-02T07:49:33.817Z,6.13
2023-12-02T07:52:00.614Z,7.13
2023-12-02T07:54:27.113Z,6.35
2023-12-02T07:56:53.600Z,5.95
2023-12-02T07:59:20.086Z,6.70
2023-12-02T08:01:46.816Z,6.97
2023-12-02T08:04:13.506Z,7.45
2023-12-02T08:06:40.081Z,6.75
2023-12-02T08:09:06.654Z,7.20
2023-12-02T08:11:33.163Z,6.50
2023-12-02T08:13:59.782Z,7.15
2023-12-02T08:16:26.494Z,7.10
2023-12-02T08:18:53.399Z,6.70
2023-12-02T08:21:20.005Z,6.50
2023-12-02T08:23:46.547Z,6.43
2023-12-02T08:26:13.144Z,6.72
2023-12-02T08:28:39.762Z,6.45
2023-12-02T08:31:06.522Z,6.85
2023-12-02T08:33:33.125Z,6.90
2023-12-02T08:35:59.683Z,7.43
2023-12-02T08:38:26.361Z,6.40
2023-12-02T08:40:52.934Z,5.78
2023-12-02T08:43:19.550Z,6.60
2023-12-02T08:45:46.108Z,7.10
2023-12-02T08:48:12.803Z,7.85
2023-12-02T08:50:39.422Z,6.65
2023-12-02T08:53:06.113Z,7.50
2023-12-02T08:55:32.732Z,7.10
2023-12-02T08:57:59.355Z,7.20
2023-12-02T09:00:25.995Z,6.70
2023-12-02T09:02:52.689Z,7.15
2023-12-02T09:05:19.792Z,7.25
2023-12-02T09:07:46.404Z,6.68
2023-12-02T09:10:26.780Z,6.35
2023-12-02T09:12:55.494Z,6.85
2023-12-02T09:15:22.075Z,7.10
2023-12-02T09:18:11.013Z,7.38
2023-12-02T09:20:48.132Z,7.43
2023-12-02T09:23:16.394Z,8.20
2023-12-02T09:25:43.658Z,7.18
2023-12-02T09:28:14.784Z,6.43
2023-12-02T09:30:41.980Z,7.57
2023-12-02T09:33:08.905Z,7.90
2023-12-02T09:35:35.697Z,8.45
2023-12-02T09:38:03.030Z,7.65
2023-12-02T09:40:52.202Z,9.05
2023-12-02T09:43:27.804Z,6.97
2023-12-02T09:46:18.014Z,7.15
2023-12-02T09:48:48.101Z,7.13
2023-12-02T09:54:13.359Z,6.07
2023-12-02T09:56:42.480Z,7.20
2023-12-02T09:59:20.064Z,7.88
2023-12-02T10:02:09.436Z,7.03
2023-12-02T10:05:01.182Z,6.03
2023-12-02T10:07:41.823Z,5.82
2023-12-02T10:10:09.722Z,7.68
2023-12-02T10:13:14.134Z,6.88
2023-12-02T10:15:41.064Z,5.50
2023-12-02T10:18:14.843Z,5.82
2023-12-02T10:20:43.124Z,6.03
2023-12-02T10:23:15.730Z,6.85
2023-12-02T10:25:43.579Z,6.22
2023-12-02T10:28:34.055Z,6.60
2023-12-02T10:31:00.868Z,7.13
2023-12-02T10:33:29.057Z,8.32
2023-12-02T10:36:04.139Z,8.13
2023-12-02T10:39:07.646Z,7.75
2023-12-02T10:41:46.857Z,5.68
2023-12-02T10:44:15.017Z,7.03
2023-12-02T10:46:41.710Z,7.50
2023-12-02T10:49:08.550Z,6.88
2023-12-02T10:51:37.538Z,6.88
2023-12-02T10:54:04.682Z,6.72
2023-12-02T10:56:31.389Z,5.85
2023-12-02T10:58:58.136Z,7.10
2023-12-02T11:01:50.555Z,6.68
2023-12-02T11:04:30.236Z,6.43
2023-12-02T11:07:02.872Z,5.85
2023-12-02T11:09:56.716Z,5.97
2023-12-02T11:12:29.193Z,5.65
2023-12-02T11:14:58.996Z,7.03
2023-12-02T11:17:32.049Z,6.65
2023-12-02T11:20:23.234Z,6.13
2023-12-02T11:22:55.541Z,6.05
2023-12-02T11:25:25.092Z,5.97
2023-12-02T11:28:04.466Z,5.82
2023-12-02T11:30:47.595Z,5.80
2023-12-02T11:33:17.283Z,5.22
2023-12-02T11:36:10.108Z,5.82
2023-12-02T11:38:36.826Z,6.13
2023-12-02T11:41:11.086Z,5.45
2023-12-02T11:44:05.141Z,4.68
2023-12-02T11:46:34.158Z,4.80
2023-12-02T11:49:15.989Z,5.40
2023-12-02T11:54:34.371Z,4.78
2023-12-02T11:57:11.824Z,4.82
2023-12-02T12:00:17.160Z,4.63
2023-12-02T12:02:52.261Z,5.07
2023-12-02T12:05:24.861Z,5.15
2023-12-02T12:08:24.245Z,5.88
2023-12-02T12:13:20.621Z,4.40
2023-12-02T12:15:47.387Z,5.55
2023-12-02T12:18:14.211Z,4.43
2023-12-02T12:20:43.383Z,4.65
2023-12-02T12:23:10.083Z,4.90
2023-12-02T12:25:37.787Z,4.05
2023-12-02T12:28:05.009Z,4.13
2023-12-02T12:30:42.491Z,3.58
2023-12-02T12:33:19.508Z,3.45
2023-12-02T12:35:46.410Z,3.72
2023-12-02T12:38:13.102Z,3.95
2023-12-02T12:40:43.053Z,3.03
2023-12-02T12:43:10.273Z,2.97
2023-12-02T12:45:37.976Z,4.05
2023-12-02T12:48:05.953Z,3.75
2023-12-02T12:50:32.894Z,3.72
2023-12-02T12:53:10.184Z,3.60
2023-12-02T12:55:38.485Z,3.13
2023-12-02T12:58:08.579Z,3.40
2023-12-02T13:00:40.260Z,3.08
2023-12-02T13:03:18.662Z,2.65
2023-12-02T13:05:45.447Z,3.42
2023-12-02T13:08:40.730Z,2.75
2023-12-02T13:11:18.602Z,2.50
2023-12-02T13:13:54.084Z,2.80
2023-12-02T13:16:22.641Z,4.53
2023-12-02T13:18:50.504Z,2.85
2023-12-02T13:21:17.633Z,3.47
2023-12-02T13:23:44.729Z,3.55
2023-12-02T13:26:11.425Z,2.70
2023-12-02T13:28:38.197Z,2.80
2023-12-02T13:31:05.420Z,3.03
2023-12-02T13:33:46.608Z,2.97
2023-12-02T13:36:13.793Z,3.55
2023-12-02T13:38:50.505Z,3.22
2023-12-02T13:41:20.334Z,3.55
2023-12-02T13:43:52.025Z,4.10
2023-12-02T13:46:18.974Z,3.92
2023-12-02T13:49:03.810Z,3.67
2023-12-02T13:51:31.422Z,3.53
2023-12-02T13:54:07.899Z,4.38
2023-12-02T13:56:46.181Z,3.40
2023-12-02T13:59:20.044Z,3.53
2023-12-02T14:01:55.151Z,4.47
2023-12-02T14:05:00.342Z,4.38
2023-12-02T14:07:30.129Z,4.32
2023-12-02T14:09:56.883Z,3.80
2023-12-02T14:12:49.403Z,5.32
2023-12-02T14:15:34.994Z,4.57
2023-12-02T14:18:23.633Z,3.63
2023-12-02T14:20:50.360Z,4.18
2023-12-02T14:23:27.389Z,3.53
2023-12-02T14:26:18.510Z,4.03
2023-12-02T14:29:06.566Z,3.95
2023-12-02T14:31:36.220Z,3.92
2023-12-02T14:34:31.317Z,3.45
2023-12-02T14:37:04.116Z,4.07
2023-12-02T14:39:55.402Z,4.20
2023-12-02T14:42:32.196Z,3.88
2023-12-02T14:44:59.398Z,4.40
2023-12-02T14:47:26.193Z,5.22
2023-12-02T14:49:52.890Z,3.85
2023-12-02T14:52:20.169Z,4.15
2023-12-02T14:54:47.508Z,4.68
2023-12-02T14:57:18.781Z,4.72
2023-12-02T14:59:46.338Z,5.07
2023-12-02T15:02:34.831Z,4.32
2023-12-02T15:05:05.563Z,3.63
2023-12-02T15:07:33.200Z,4.15
2023-12-02T15:10:00.484Z,3.47
2023-12-02T15:12:27.255Z,3.40
2023-12-02T15:14:55.859Z,3.83
2023-12-02T15:17:22.871Z,3.28
2023-12-02T15:19:49.630Z,3.40
2023-12-02T15:22:19.666Z,4.45
2023-12-02T15:24:46.448Z,4.03
2023-12-02T15:27:13.162Z,4.03
2023-12-02T15:29:39.918Z,4.97
2023-12-02T15:32:06.706Z,5.03
2023-12-02T15:34:34.521Z,4.75
2023-12-02T15:37:01.339Z,4.85
2023-12-02T15:39:28.137Z,4.57
2023-12-02T15:41:54.856Z,6.32
2023-12-02T15:44:21.617Z,6.15
2023-12-02T15:46:48.297Z,5.43
2023-12-02T15:49:15.115Z,6.47
2023-12-02T15:51:41.925Z,5.00
2023-12-02T15:54:08.744Z,5.93
2023-12-02T15:56:35.451Z,5.32
2023-12-02T15:59:02.163Z,5.50
2023-12-02T16:01:28.886Z,5.80
2023-12-02T16:03:56.016Z,4.82
2023-12-02T16:06:23.239Z,5.00
2023-12-02T16:08:50.245Z,5.32
2023-12-02T16:11:16.954Z,6.38
2023-12-02T16:13:43.771Z,5.68
2023-12-02T16:16:14.732Z,4.82
2023-12-02T16:18:43.105Z,4.85
2023-12-02T16:21:11.189Z,4.28
2023-12-02T16:23:37.980Z,4.63
2023-12-02T16:26:04.903Z,4.90
2023-12-02T16:28:34.598Z,5.22
2023-12-02T16:31:03.996Z,4.68
2023-12-02T16:33:30.861Z,4.50
2023-12-02T16:35:57.662Z,4.68
2023-12-02T16:38:24.414Z,3.88
2023-12-02T16:40:52.696Z,4.28
2023-12-02T16:43:20.244Z,4.13
2023-12-02T16:45:47.303Z,5.18
2023-12-02T16:48:14.823Z,4.93
2023-12-02T16:50:45.490Z,4.10
2023-12-02T16:53:12.752Z,4.72
2023-12-02T16:55:39.472Z,4.97
2023-12-02T16:58:07.257Z,4.93
2023-12-02T17:00:36.917Z,4.97
2023-12-02T17:03:03.881Z,6.35
2023-12-02T17:05:33.671Z,4.65
2023-12-02T17:08:04.159Z,6.20
2023-12-02T17:10:43.072Z,6.10
2023-12-02T17:13:26.122Z,5.57
2023-12-02T17:15:53.217Z,5.95
2023-12-02T17:19:02.080Z,5.30
2023-12-02T17:21:31.713Z,5.55
2023-12-02T17:23:58.973Z,6.35
2023-12-02T17:26:28.078Z,6.18
2023-12-02T17:28:55.060Z,6.25
2023-12-02T17:31:21.797Z,6.03
2023-12-02T17:33:48.529Z,6.35
2023-12-02T17:36:15.735Z,6.03
2023-12-02T17:38:42.536Z,5.80
2023-12-02T17:41:09.275Z,6.15
2023-12-02T17:43:35.958Z,6.13
2023-12-02T17:46:02.802Z,5.53
2023-12-02T17:48:29.681Z,5.25
2023-12-02T17:50:56.504Z,6.20
2023-12-02T17:53:23.830Z,7.25
2023-12-02T17:55:50.644Z,5.85
2023-12-02T17:58:17.310Z,5.68
2023-12-02T18:00:44.695Z,6.25
2023-12-02T18:03:11.878Z,6.28
2023-12-02T18:05:38.706Z,5.45
2023-12-02T18:08:05.404Z,6.97
2023-12-02T18:10:32.153Z,6.72
2023-12-02T18:12:58.853Z,6.97
2023-12-02T18:15:25.656Z,6.35
2023-12-02T18:17:52.451Z,6.13
2023-12-02T18:20:19.197Z,5.97
2023-12-02T18:22:46.437Z,6.43
2023-12-02T18:25:13.152Z,6.05
2023-12-02T18:27:39.920Z,5.68
2023-12-02T18:30:07.321Z,6.22
2023-12-02T18:32:34.144Z,6.32
2023-12-02T18:35:00.914Z,7.22
2023-12-02T18:37:27.654Z,7.40
2023-12-02T18:39:54.962Z,7.75
2023-12-02T18:42:21.739Z,7.38
2023-12-02T18:44:48.493Z,7.47
2023-12-02T18:47:15.233Z,8.23
2023-12-02T18:49:41.929Z,8.57
2023-12-02T18:52:08.741Z,7.50
2023-12-02T18:54:35.495Z,8.13
2023-12-02T18:57:02.248Z,7.43
2023-12-02T18:59:29.350Z,7.07
2023-12-02T19:01:56.148Z,8.52
2023-12-02T19:04:22.884Z,6.57
2023-12-02T19:06:49.590Z,8.70
2023-12-02T19:09:16.372Z,7.18
2023-12-02T19:11:43.167Z,7.90
2023-12-02T19:14:09.966Z,7.50
2023-12-02T19:16:36.738Z,7.93
2023-12-02T19:19:04.076Z,7.25
2023-12-02T19:21:33.524Z,9.02
2023-12-02T19:24:00.305Z,6.97
2023-12-02T19:26:27.001Z,7.07
2023-12-02T19:28:53.852Z,6.43
2023-12-02T19:31:20.551Z,6.65
2023-12-02T19:33:47.377Z,8.23
2023-12-02T19:36:14.304Z,7.38
2023-12-02T19:38:41.341Z,7.78
2023-12-02T19:41:08.319Z,8.60
2023-12-02T19:43:35.087Z,7.78
2023-12-02T19:46:01.824Z,8.77
2023-12-02T19:48:28.688Z,8.18
2023-12-02T19:50:55.435Z,7.25
2023-12-02T19:53:22.081Z,7.45
2023-12-02T19:55:48.802Z,8.93
2023-12-02T19:58:15.607Z,8.85
2023-12-02T20:00:42.376Z,7.50
2023-12-02T20:03:09.261Z,8.18
2023-12-02T20:05:36.094Z,8.27
2023-12-02T20:08:02.862Z,8.10
2023-12-02T20:10:29.518Z,8.73
2023-12-02T20:12:56.270Z,8.27
2023-12-02T20:15:23.095Z,6.65
2023-12-02T20:17:49.867Z,8.15
2023-12-02T20:20:16.691Z,6.85
2023-12-02T20:22:43.430Z,6.35
2023-12-02T20:25:10.156Z,7.15
2023-12-02T20:27:36.941Z,5.82
2023-12-02T20:30:04.046Z,5.50
2023-12-02T20:32:30.976Z,5.57
2023-12-02T20:34:57.811Z,5.20
2023-12-02T20:37:24.544Z,5.70
2023-12-02T20:39:51.348Z,5.68
2023-12-02T20:42:18.137Z,5.38
2023-12-02T20:44:44.875Z,4.95
2023-12-02T20:47:12.178Z,4.68
2023-12-02T20:49:39.017Z,6.32
2023-12-02T20:52:06.858Z,5.38
2023-12-02T20:54:33.737Z,5.30
2023-12-02T20:57:00.478Z,4.85
2023-12-02T20:59:27.156Z,5.40
2023-12-02T21:01:53.944Z,5.65
2023-12-02T21:04:20.690Z,5.25
2023-12-02T21:06:47.484Z,5.25
2023-12-02T21:09:14.363Z,5.10
2023-12-02T21:11:41.062Z,6.05
2023-12-02T21:14:07.811Z,5.20
2023-12-02T21:16:34.496Z,4.35
2023-12-02T21:19:01.241Z,5.80
2023-12-02T21:21:27.973Z,5.53
2023-12-02T21:23:54.685Z,5.43
2023-12-02T21:26:21.330Z,6.78
2023-12-02T21:28:48.927Z,5.85
2023-12-02T21:31:15.770Z,6.47
2023-12-02T21:33:42.613Z,6.90
2023-12-02T21:36:09.885Z,6.03
2023-12-02T21:38:43.470Z,6.55
2023-12-02T21:41:12.277Z,6.38
2023-12-02T21:43:38.996Z,6.28
2023-12-02T21:46:06.007Z,6.10
2023-12-02T21:48:42.716Z,6.00
2023-12-02T21:51:33.056Z,7.40
2023-12-02T21:54:09.425Z,7.85
2023-12-02T21:56:46.268Z,7.30
2023-12-02T21:59:22.455Z,6.97
2023-12-02T22:01:55.770Z,6.88
2023-12-02T22:04:23.460Z,7.57
2023-12-02T22:06:52.270Z,7.38
2023-12-02T22:09:21.859Z,7.25
2023-12-02T22:11:48.494Z,6.65
2023-12-02T22:14:23.447Z,7.07
2023-12-02T22:17:00.347Z,7.35
2023-12-02T22:19:27.188Z,6.45
2023-12-02T22:21:54.254Z,7.05
2023-12-02T22:24:21.228Z,7.55
2023-12-02T22:26:48.037Z,7.32
2023-12-02T22:29:27.213Z,6.53
2023-12-02T22:31:54.494Z,7.63
2023-12-02T22:34:22.423Z,7.10
2023-12-02T22:36:49.302Z,7.40
2023-12-02T22:39:28.605Z,6.93
2023-12-02T22:41:56.365Z,7.75
2023-12-02T22:44:23.637Z,7.50
2023-12-02T22:46:59.209Z,6.78
2023-12-02T22:49:27.386Z,7.03
2023-12-02T22:51:54.808Z,7.93
2023-12-02T22:54:28.483Z,7.75
2023-12-02T22:56:55.664Z,7.07
2023-12-02T22:59:22.316Z,7.63
2023-12-02T23:01:50.028Z,6.07
2023-12-02T23:04:38.927Z,7.28
2023-12-02T23:07:12.000Z,7.18
2023-12-02T23:09:51.785Z,7.78
2023-12-02T23:12:31.099Z,6.97
2023-12-02T23:15:29.903Z,7.25
2023-12-02T23:17:56.743Z,7.05
2023-12-02T23:20:33.592Z,6.53
2023-12-02T23:23:00.439Z,7.07
2023-12-02T23:25:27.468Z,6.65
2023-12-02T23:27:54.469Z,7.07
2023-12-02T23:30:21.548Z,8.43
2023-12-02T23:32:48.614Z,6.97
2023-12-02T23:35:20.486Z,6.85
2023-12-02T23:37:48.118Z,6.97
2023-12-02T23:40:50.325Z,7.20
2023-12-02T23:43:35.546Z,6.72
2023-12-02T23:46:03.814Z,6.72
2023-12-02T23:48:30.644Z,7.13
2023-12-02T23:50:57.454Z,6.88
2023-12-02T23:53:24.251Z,6.68
2023-12-02T23:55:51.587Z,7.22
2023-12-02T23:58:18.394Z,6.00
